Time;durP1;ratioP1;P1;durP2;ratioP2;P2;SDS_P1;SDS_P2;PMS_P1;PMS_P2;Temp;Humidity;BMP_temperature;BMP_pressure;BME280_temperature;BME280_humidity;BME280_pressure;Samples;Min_cycle;Max_cycle;Signal;HPM_P1;HPM_P2
2023/04/18 00:02:07;;;;;;;;;;;;;;;10.13;100.00;98304.50;5027945;28;19961;-81
2023/04/18 00:04:35;;;;;;;;;;;;;;;10.01;100.00;98300.31;5008148;28;19998;-80
2023/04/18 00:07:02;;;;;;;;;;;;;;;10.28;100.00;98296.66;4993253;28;19936;-79
2023/04/18 00:09:28;;;;;;;;;;;;;;;10.23;100.00;98293.94;4995905;28;19929;-81
2023/04/18 00:11:55;;;;;;;;;;;;;;;10.18;100.00;98295.75;5007938;28;20059;-80
2023/04/18 00:14:21;;;;;;;;;;;;;;;9.90;100.00;98298.59;5019932;28;19951;-80
2023/04/18 00:16:48;;;;;;;;;;;;;;;10.06;100.00;98298.53;4999426;28;19956;-81
2023/04/18 00:19:14;;;;;;;;;;;;;;;9.99;100.00;98302.44;5009217;28;20541;-79
2023/04/18 00:21:43;;;;;;;;;;;;;;;10.06;100.00;98293.19;5000744;28;19936;-80
2023/04/18 00:24:10;;;;;;;;;;;;;;;10.38;100.00;98293.28;5016836;28;20529;-79
2023/04/18 00:26:36;;;;;;;;;;;;;;;10.08;100.00;98292.94;5011569;28;21833;-79
2023/04/18 00:29:03;;;;;;;;;;;;;;;10.25;100.00;98301.69;5012783;28;19932;-81
2023/04/18 00:31:30;;;;;;;;;;;;;;;10.28;100.00;98302.00;5019709;28;19929;-80
2023/04/18 00:33:56;;;;;;;;;;;;;;;10.60;100.00;98296.72;5010799;28;19932;-80
2023/04/18 00:36:23;;;;;;;;;;;;;;;10.54;100.00;98294.25;5018700;28;19932;-80
2023/04/18 00:38:50;;;;;;;;;;;;;;;10.66;100.00;98295.69;5023657;28;20011;-80
2023/04/18 00:41:17;;;;;;;;;;;;;;;10.69;100.00;98292.50;5025578;28;19947;-80
2023/04/18 00:43:43;;;;;;;;;;;;;;;10.64;100.00;98295.16;5027324;28;20624;-79
2023/04/18 00:46:09;;;;;;;;;;;;;;;10.60;100.00;98298.56;5027395;28;19929;-79
2023/04/18 00:48:37;;;;;;;;;;;;;;;10.59;100.00;98295.09;5026049;28;19933;-79
2023/04/18 00:51:04;;;;;;;;;;;;;;;10.11;100.00;98301.25;5022658;28;20016;-80
2023/04/18 00:53:30;;;;;;;;;;;;;;;10.29;100.00;98297.47;5021881;28;19929;-80
2023/04/18 00:55:58;;;;;;;;;;;;;;;10.19;100.00;98297.34;5020702;28;20303;-80
2023/04/18 00:58:24;;;;;;;;;;;;;;;10.29;100.00;98306.28;5023305;28;19961;-80
2023/04/18 01:00:52;;;;;;;;;;;;;;;9.94;100.00;98305.03;5022078;28;19931;-80
2023/04/18 01:03:19;;;;;;;;;;;;;;;10.17;100.00;98307.50;5006090;28;19930;-80
2023/04/18 01:05:45;;;;;;;;;;;;;;;9.92;100.00;98299.97;5008254;28;19929;-81
2023/04/18 01:08:12;;;;;;;;;;;;;;;9.76;100.00;98304.31;5011977;28;19940;-80
2023/04/18 01:10:38;;;;;;;;;;;;;;;9.55;100.00;98305.09;5020106;28;19925;-79
2023/04/18 01:13:12;;;;;;;;;;;;;;;10.38;100.00;98290.63;5012720;28;19925;-79
2023/04/18 01:15:39;;;;;;;;;;;;;;;10.66;100.00;98293.03;5008808;28;19925;-81
2023/04/18 01:18:07;;;;;;;;;;;;;;;10.66;100.00;98286.88;5004647;28;19925;-81
2023/04/18 01:20:35;;;;;;;;;;;;;;;10.76;100.00;98286.97;5017304;28;19931;-80
2023/04/18 01:23:01;;;;;;;;;;;;;;;10.57;100.00;98291.06;5007664;28;19976;-79
2023/04/18 01:25:29;;;;;;;;;;;;;;;10.94;100.00;98294.59;5005545;28;19925;-80
2023/04/18 01:27:57;;;;;;;;;;;;;;;10.22;100.00;98280.84;5012302;28;19940;-80
2023/04/18 01:30:23;;;;;;;;;;;;;;;9.98;100.00;98298.97;4993918;28;20004;-80
2023/04/18 01:32:50;;;;;;;;;;;;;;;9.91;100.00;98289.53;5004817;28;19930;-80
2023/04/18 01:35:17;;;;;;;;;;;;;;;10.33;100.00;98287.09;5000782;28;20021;-80
2023/04/18 01:37:43;;;;;;;;;;;;;;;10.45;100.00;98295.75;5014274;28;19944;-79
2023/04/18 01:40:10;;;;;;;;;;;;;;;10.34;100.00;98292.16;5025426;28;19936;-80
2023/04/18 01:42:38;;;;;;;;;;;;;;;10.38;100.00;98300.50;5013317;28;20160;-80
2023/04/18 01:45:05;;;;;;;;;;;;;;;10.24;100.00;98295.53;5013515;28;19925;-81
2023/04/18 01:47:31;;;;;;;;;;;;;;;10.32;100.00;98299.63;5005746;28;19928;-81
2023/04/18 01:49:58;;;;;;;;;;;;;;;10.13;100.00;98303.66;4995386;28;19929;-79
2023/04/18 01:52:25;;;;;;;;;;;;;;;9.90;100.00;98306.63;5022558;28;19925;-79
2023/04/18 01:54:51;;;;;;;;;;;;;;;10.32;100.00;98301.50;5013294;28;19929;-80
2023/04/18 01:57:17;;;;;;;;;;;;;;;10.11;100.00;98295.13;5014561;28;20424;-79
2023/04/18 01:59:45;;;;;;;;;;;;;;;10.56;100.00;98292.94;5017004;28;19929;-80
2023/04/18 02:02:11;;;;;;;;;;;;;;;10.10;100.00;98296.16;5016883;28;19933;-79
2023/04/18 02:04:38;;;;;;;;;;;;;;;10.01;100.00;98287.78;5016356;28;19929;-81
2023/04/18 02:07:04;;;;;;;;;;;;;;;10.27;100.00;98289.69;5014801;28;19925;-81
2023/04/18 02:09:30;;;;;;;;;;;;;;;10.37;100.00;98294.34;5019388;28;19931;-80
2023/04/18 02:11:58;;;;;;;;;;;;;;;10.19;100.00;98292.81;5010926;28;19929;-79
2023/04/18 02:14:24;;;;;;;;;;;;;;;10.14;100.00;98295.44;5023728;28;19925;-80
2023/04/18 02:16:52;;;;;;;;;;;;;;;9.94;100.00;98289.03;5025107;28;19936;-80
2023/04/18 02:19:18;;;;;;;;;;;;;;;9.76;100.00;98298.16;5014310;28;20423;-79
2023/04/18 02:21:45;;;;;;;;;;;;;;;10.01;100.00;98298.47;5019624;28;19925;-80
2023/04/18 02:24:11;;;;;;;;;;;;;;;10.10;100.00;98293.50;5014884;28;19929;-80
2023/04/18 02:26:37;;;;;;;;;;;;;;;9.89;100.00;98297.78;5023115;28;20178;-79
2023/04/18 02:29:03;;;;;;;;;;;;;;;9.73;100.00;98304.00;5020201;28;20414;-78
2023/04/18 02:31:30;;;;;;;;;;;;;;;9.78;100.00;98298.72;5009557;28;20097;-79
2023/04/18 02:33:58;;;;;;;;;;;;;;;9.75;100.00;98301.88;5007818;28;19933;-79
2023/04/18 02:36:25;;;;;;;;;;;;;;;9.66;100.00;98298.84;5012748;28;20507;-79
2023/04/18 02:38:51;;;;;;;;;;;;;;;9.80;100.00;98301.16;5014632;28;19925;-80
2023/04/18 02:41:18;;;;;;;;;;;;;;;9.71;100.00;98303.44;5013840;28;20547;-80
2023/04/18 02:43:44;;;;;;;;;;;;;;;9.77;100.00;98289.94;5028149;28;19929;-79
2023/04/18 02:46:11;;;;;;;;;;;;;;;10.18;100.00;98293.88;5016395;28;19968;-79
2023/04/18 02:48:37;;;;;;;;;;;;;;;10.07;100.00;98294.00;5004556;28;19935;-80
2023/04/18 02:51:05;;;;;;;;;;;;;;;10.40;100.00;98293.06;5008418;28;19966;-79
2023/04/18 02:53:32;;;;;;;;;;;;;;;10.10;100.00;98298.81;5014030;28;19925;-80
2023/04/18 02:55:58;;;;;;;;;;;;;;;10.38;100.00;98295.97;5007249;28;19930;-80
2023/04/18 02:58:25;;;;;;;;;;;;;;;10.28;100.00;98296.66;5015974;28;19937;-80
2023/04/18 03:00:53;;;;;;;;;;;;;;;10.00;100.00;98299.53;5014233;28;20407;-80
2023/04/18 03:03:19;;;;;;;;;;;;;;;9.58;100.00;98293.13;4997091;28;20416;-80
2023/04/18 03:05:46;;;;;;;;;;;;;;;9.17;100.00;98294.44;4997512;28;20394;-80
2023/04/18 03:08:15;;;;;;;;;;;;;;;9.61;100.00;98295.31;4999203;28;20551;-80
2023/04/18 03:10:41;;;;;;;;;;;;;;;9.27;100.00;98296.44;5015825;28;19936;-80
2023/04/18 03:13:07;;;;;;;;;;;;;;;8.94;100.00;98300.75;5008704;28;20341;-80
2023/04/18 03:15:34;;;;;;;;;;;;;;;9.16;100.00;98308.78;5005015;28;20495;-80
2023/04/18 03:18:00;;;;;;;;;;;;;;;9.67;100.00;98312.97;5007014;28;19933;-80
2023/04/18 03:20:26;;;;;;;;;;;;;;;9.45;100.00;98307.63;5001957;28;19925;-81
2023/04/18 03:22:53;;;;;;;;;;;;;;;9.15;100.00;98296.53;5016958;28;19925;-79
2023/04/18 03:25:20;;;;;;;;;;;;;;;9.32;100.00;98301.81;5011292;28;19968;-80
2023/04/18 03:27:47;;;;;;;;;;;;;;;9.26;100.00;98295.63;5011914;28;20002;-80
2023/04/18 03:30:13;;;;;;;;;;;;;;;9.22;100.00;98297.97;5023953;28;19944;-80
2023/04/18 03:32:40;;;;;;;;;;;;;;;9.21;100.00;98292.91;5023830;28;20371;-79
2023/04/18 03:35:07;;;;;;;;;;;;;;;9.05;100.00;98296.38;5016894;28;19929;-79
2023/04/18 03:37:33;;;;;;;;;;;;;;;8.96;100.00;98303.16;5024207;28;19933;-79
2023/04/18 03:40:00;;;;;;;;;;;;;;;8.75;100.00;98301.22;5025158;28;20349;-78
2023/04/18 03:42:27;;;;;;;;;;;;;;;8.66;100.00;98306.94;5018824;28;19925;-79
2023/04/18 03:44:54;;;;;;;;;;;;;;;8.94;100.00;98313.25;5019916;28;19945;-80
2023/04/18 03:47:20;;;;;;;;;;;;;;;9.02;100.00;98297.69;5028712;28;19925;-80
2023/04/18 03:49:46;;;;;;;;;;;;;;;9.07;100.00;98303.06;5027413;28;19925;-79
2023/04/18 03:52:14;;;;;;;;;;;;;;;9.34;100.00;98308.53;5013001;28;19976;-79
2023/04/18 03:54:41;;;;;;;;;;;;;;;9.44;100.00;98299.88;5010692;28;20278;-80
2023/04/18 03:57:07;;;;;;;;;;;;;;;8.94;100.00;98308.75;5024936;28;19925;-80
2023/04/18 03:59:35;;;;;;;;;;;;;;;8.97;100.00;98307.44;5017817;28;19929;-80
2023/04/18 04:02:01;;;;;;;;;;;;;;;9.04;100.00;98316.06;5018350;28;20389;-79
2023/04/18 04:04:27;;;;;;;;;;;;;;;9.03;100.00;98314.47;5005565;28;20140;-79
2023/04/18 04:06:54;;;;;;;;;;;;;;;8.90;100.00;98309.47;5021986;28;19940;-79
2023/04/18 04:09:21;;;;;;;;;;;;;;;9.30;100.00;98309.28;5017688;28;19929;-80
2023/04/18 04:11:47;;;;;;;;;;;;;;;8.74;100.00;98315.59;5012142;28;19964;-80
2023/04/18 04:14:13;;;;;;;;;;;;;;;9.03;100.00;98317.13;5011283;28;20609;-80
2023/04/18 04:16:41;;;;;;;;;;;;;;;9.05;100.00;98315.03;5014412;28;20043;-80
2023/04/18 04:19:07;;;;;;;;;;;;;;;8.88;100.00;98314.25;5024355;28;20316;-79
2023/04/18 04:21:34;;;;;;;;;;;;;;;9.05;100.00;98307.84;5010657;28;19925;-78
2023/04/18 04:24:01;;;;;;;;;;;;;;;9.15;100.00;98320.53;5009553;28;19933;-79
2023/04/18 04:26:29;;;;;;;;;;;;;;;9.27;100.00;98315.91;5006845;28;19929;-79
2023/04/18 04:28:56;;;;;;;;;;;;;;;9.07;100.00;98321.72;5006981;28;19936;-78
2023/04/18 04:31:22;;;;;;;;;;;;;;;9.07;100.00;98315.56;5007816;28;20039;-79
2023/04/18 04:33:50;;;;;;;;;;;;;;;9.10;100.00;98329.22;4997419;28;19951;-79
2023/04/18 04:36:17;;;;;;;;;;;;;;;9.39;100.00;98335.25;4997482;28;20044;-80
2023/04/18 04:38:44;;;;;;;;;;;;;;;9.89;100.00;98327.13;5009961;28;20445;-80
2023/04/18 04:41:11;;;;;;;;;;;;;;;10.19;100.00;98330.19;5020252;28;20474;-79
2023/04/18 04:43:39;;;;;;;;;;;;;;;10.38;100.00;98327.19;5018162;28;20490;-80
2023/04/18 04:46:06;;;;;;;;;;;;;;;10.34;100.00;98324.22;5011519;28;20000;-80
2023/04/18 04:48:32;;;;;;;;;;;;;;;10.04;100.00;98326.50;5006285;28;19932;-80
2023/04/18 04:51:00;;;;;;;;;;;;;;;9.92;100.00;98328.50;5014498;28;19935;-80
2023/04/18 04:53:29;;;;;;;;;;;;;;;9.93;100.00;98325.59;5005626;28;19925;-79
2023/04/18 04:55:55;;;;;;;;;;;;;;;9.59;100.00;98324.88;5009831;28;20032;-79
2023/04/18 04:58:21;;;;;;;;;;;;;;;9.62;100.00;98329.72;5017309;28;20096;-79
2023/04/18 05:00:49;;;;;;;;;;;;;;;9.93;100.00;98319.44;5016077;28;19928;-79
2023/04/18 05:03:16;;;;;;;;;;;;;;;9.80;100.00;98333.16;5016371;28;20353;-80
2023/04/18 05:05:42;;;;;;;;;;;;;;;9.55;100.00;98329.09;5013602;28;19976;-79
2023/04/18 05:08:10;;;;;;;;;;;;;;;9.62;100.00;98334.25;5014317;28;20035;-79
2023/04/18 05:10:36;;;;;;;;;;;;;;;9.36;100.00;98330.41;5011998;28;19975;-79
2023/04/18 05:13:03;;;;;;;;;;;;;;;9.28;100.00;98336.19;5021087;28;19941;-78
2023/04/18 05:15:29;;;;;;;;;;;;;;;9.51;100.00;98343.16;5018401;28;19929;-78
2023/04/18 05:17:56;;;;;;;;;;;;;;;9.46;100.00;98338.56;5018872;28;20697;-79
2023/04/18 05:20:22;;;;;;;;;;;;;;;9.48;100.00;98349.78;5003454;28;20360;-79
2023/04/18 05:22:49;;;;;;;;;;;;;;;9.52;100.00;98342.94;5010385;28;19972;-79
2023/04/18 05:25:16;;;;;;;;;;;;;;;9.74;100.00;98353.63;5015597;28;19926;-79
2023/04/18 05:27:43;;;;;;;;;;;;;;;9.72;100.00;98343.19;5009352;28;19930;-79
2023/04/18 05:30:10;;;;;;;;;;;;;;;9.65;100.00;98345.25;5017088;28;20010;-79
2023/04/18 05:32:37;;;;;;;;;;;;;;;9.85;100.00;98358.03;5013816;28;19929;-78
2023/04/18 05:35:04;;;;;;;;;;;;;;;9.51;100.00;98351.97;5021087;28;20343;-80
2023/04/18 05:37:30;;;;;;;;;;;;;;;9.61;100.00;98354.78;5035063;28;19979;-79
2023/04/18 05:39:57;;;;;;;;;;;;;;;9.35;100.00;98352.78;5016495;28;19929;-79
2023/04/18 05:42:24;;;;;;;;;;;;;;;9.37;100.00;98344.56;5016990;28;20258;-79
2023/04/18 05:44:51;;;;;;;;;;;;;;;9.52;100.00;98340.25;5024307;28;19929;-79
2023/04/18 05:47:17;;;;;;;;;;;;;;;9.39;100.00;98345.13;5010812;28;20025;-79
2023/04/18 05:49:43;;;;;;;;;;;;;;;9.53;100.00;98355.19;5011764;28;19991;-80
2023/04/18 05:52:10;;;;;;;;;;;;;;;9.38;100.00;98354.97;5019649;28;19931;-80
2023/04/18 05:54:36;;;;;;;;;;;;;;;9.47;100.00;98358.81;5006752;28;20557;-79
2023/04/18 05:57:02;;;;;;;;;;;;;;;9.56;100.00;98356.56;5001831;28;20368;-80
2023/04/18 05:59:30;;;;;;;;;;;;;;;9.38;100.00;98357.63;5003293;28;20122;-78
2023/04/18 06:01:57;;;;;;;;;;;;;;;9.32;100.00;98358.59;5009305;28;20012;-80
2023/04/18 06:04:23;;;;;;;;;;;;;;;9.19;100.00;98354.41;5005922;28;19947;-79
2023/04/18 06:06:49;;;;;;;;;;;;;;;9.36;100.00;98362.41;5006298;28;19980;-80
2023/04/18 06:09:16;;;;;;;;;;;;;;;9.04;100.00;98364.03;5008671;28;20036;-79
2023/04/18 06:11:42;;;;;;;;;;;;;;;9.14;100.00;98358.88;4989651;28;20443;-80
2023/04/18 06:14:08;;;;;;;;;;;;;;;8.98;100.00;98370.31;5006200;28;20573;-80
2023/04/18 06:16:37;;;;;;;;;;;;;;;9.14;100.00;98378.31;5008502;28;20103;-80
2023/04/18 06:19:04;;;;;;;;;;;;;;;9.20;100.00;98366.69;5018239;28;19936;-79
2023/04/18 06:21:30;;;;;;;;;;;;;;;9.25;100.00;98381.16;5012955;28;19932;-80
2023/04/18 06:23:56;;;;;;;;;;;;;;;9.53;100.00;98376.50;5012547;28;19987;-80
2023/04/18 06:26:23;;;;;;;;;;;;;;;9.56;100.00;98377.91;5016507;28;19925;-80
2023/04/18 06:28:49;;;;;;;;;;;;;;;9.44;100.00;98375.31;5015017;28;19925;-80
2023/04/18 06:31:16;;;;;;;;;;;;;;;9.76;100.00;98384.31;5021944;28;20260;-79
2023/04/18 06:33:43;;;;;;;;;;;;;;;9.65;100.00;98384.44;5009710;28;20031;-80
2023/04/18 06:36:10;;;;;;;;;;;;;;;9.69;100.00;98381.03;5022765;28;20594;-80
2023/04/18 06:38:36;;;;;;;;;;;;;;;9.69;100.00;98389.03;5025851;28;19925;-79
2023/04/18 06:41:02;;;;;;;;;;;;;;;9.66;100.00;98388.69;5024065;28;20415;-80
2023/04/18 06:43:29;;;;;;;;;;;;;;;9.83;100.00;98394.00;5006182;28;19926;-80
2023/04/18 06:45:55;;;;;;;;;;;;;;;10.00;100.00;98392.09;5006710;28;19941;-79
2023/04/18 06:48:22;;;;;;;;;;;;;;;9.90;100.00;98383.97;5021938;28;19976;-79
2023/04/18 06:50:49;;;;;;;;;;;;;;;9.70;100.00;98385.31;5010604;28;19970;-79
2023/04/18 06:53:16;;;;;;;;;;;;;;;9.76;100.00;98384.31;5009156;28;19925;-80
2023/04/18 06:55:42;;;;;;;;;;;;;;;9.70;100.00;98385.31;5001801;28;19985;-80
2023/04/18 06:58:09;;;;;;;;;;;;;;;9.48;100.00;98383.63;5003407;28;19926;-79
2023/04/18 07:00:35;;;;;;;;;;;;;;;9.62;100.00;98392.94;5021859;28;19929;-79
2023/04/18 07:03:04;;;;;;;;;;;;;;;9.37;100.00;98390.69;5016921;28;19932;-79
2023/04/18 07:05:30;;;;;;;;;;;;;;;9.36;100.00;98397.06;5023174;28;19971;-79
2023/04/18 07:07:58;;;;;;;;;;;;;;;9.46;100.00;98394.56;5007918;28;19929;-79
2023/04/18 07:10:25;;;;;;;;;;;;;;;9.46;100.00;98388.41;5025842;28;19929;-80
2023/04/18 07:12:51;;;;;;;;;;;;;;;9.22;100.00;98382.47;5027039;28;19925;-79
2023/04/18 07:15:18;;;;;;;;;;;;;;;9.17;100.00;98396.50;5019537;28;20019;-80
2023/04/18 07:17:44;;;;;;;;;;;;;;;9.06;100.00;98389.41;5019672;28;19925;-79
2023/04/18 07:20:11;;;;;;;;;;;;;;;9.05;100.00;98393.09;5020772;28;20009;-80
2023/04/18 07:22:37;;;;;;;;;;;;;;;9.04;100.00;98393.31;5007920;28;20105;-80
2023/04/18 07:25:05;;;;;;;;;;;;;;;9.09;100.00;98393.44;5021019;28;20012;-78
2023/04/18 07:27:33;;;;;;;;;;;;;;;9.14;100.00;98390.84;5011537;28;20379;-79
2023/04/18 07:29:59;;;;;;;;;;;;;;;9.08;100.00;98386.47;5009284;28;19925;-79
2023/04/18 07:32:25;;;;;;;;;;;;;;;9.21;100.00;98388.81;5005292;28;19940;-80
2023/04/18 07:34:52;;;;;;;;;;;;;;;9.19;100.00;98382.94;5000489;28;19932;-81
2023/04/18 07:37:20;;;;;;;;;;;;;;;9.36;100.00;98386.41;5022906;28;19929;-79
2023/04/18 07:39:47;;;;;;;;;;;;;;;9.46;100.00;98383.09;5021333;28;20066;-80
2023/04/18 07:42:14;;;;;;;;;;;;;;;9.58;100.00;98383.78;5008843;28;20401;-80
2023/04/18 07:44:41;;;;;;;;;;;;;;;9.80;100.00;98389.16;5006966;28;20368;-80
2023/04/18 07:47:09;;;;;;;;;;;;;;;9.81;100.00;98385.47;5011720;28;19925;-79
2023/04/18 07:49:36;;;;;;;;;;;;;;;9.86;100.00;98382.84;5009907;28;19929;-79
2023/04/18 07:52:02;;;;;;;;;;;;;;;9.91;100.00;98388.25;5017339;28;19925;-79
2023/04/18 07:54:28;;;;;;;;;;;;;;;9.87;100.00;98382.63;5020841;28;19939;-80
2023/04/18 07:56:55;;;;;;;;;;;;;;;9.89;100.00;98387.69;5024641;28;19925;-80
2023/04/18 07:59:23;;;;;;;;;;;;;;;9.97;100.00;98388.06;5022577;28;20023;-79
2023/04/18 08:01:49;;;;;;;;;;;;;;;9.72;100.00;98383.19;5022357;28;20513;-79
2023/04/18 08:04:15;;;;;;;;;;;;;;;9.84;100.00;98395.63;5011913;28;19925;-79
2023/04/18 08:06:42;;;;;;;;;;;;;;;9.85;100.00;98395.38;5016982;28;19934;-79
2023/04/18 08:09:08;;;;;;;;;;;;;;;9.88;100.00;98394.06;5004606;28;19930;-81
2023/04/18 08:11:34;;;;;;;;;;;;;;;9.99;100.00;98396.66;5017589;28;19951;-79
2023/04/18 08:14:01;;;;;;;;;;;;;;;10.10;100.00;98398.38;5013780;28;20477;-80
2023/04/18 08:16:29;;;;;;;;;;;;;;;10.15;100.00;98387.78;5021458;28;19983;-80
2023/04/18 08:18:55;;;;;;;;;;;;;;;10.30;100.00;98392.53;5004538;28;19929;-80
2023/04/18 08:21:21;;;;;;;;;;;;;;;10.45;100.00;98395.38;5016007;28;19925;-79
2023/04/18 08:23:48;;;;;;;;;;;;;;;10.38;100.00;98400.09;5016407;28;20130;-79
2023/04/18 08:26:14;;;;;;;;;;;;;;;10.40;100.00;98391.84;5018654;28;19925;-80
2023/04/18 08:28:41;;;;;;;;;;;;;;;10.23;100.00;98389.22;5024466;28;20016;-80
2023/04/18 08:31:11;;;;;;;;;;;;;;;10.27;100.00;98391.13;5023675;28;20769;-80
2023/04/18 08:33:39;;;;;;;;;;;;;;;10.31;100.00;98391.44;5006136;28;20017;-81
2023/04/18 08:36:05;;;;;;;;;;;;;;;10.35;100.00;98395.25;5015109;28;19929;-79
2023/04/18 08:38:32;;;;;;;;;;;;;;;10.40;100.00;98395.28;5025371;28;20011;-79
2023/04/18 08:40:58;;;;;;;;;;;;;;;10.35;100.00;98392.56;5026855;28;19972;-77
2023/04/18 08:43:24;;;;;;;;;;;;;;;10.50;100.00;98397.28;5023765;28;19968;-80
2023/04/18 08:45:51;;;;;;;;;;;;;;;10.43;100.00;98402.81;5024986;28;20568;-80
2023/04/18 08:48:18;;;;;;;;;;;;;;;10.48;100.00;98404.72;5021076;28;19925;-80
2023/04/18 08:50:46;;;;;;;;;;;;;;;10.32;100.00;98401.06;4993030;28;20303;-79
2023/04/18 08:53:13;;;;;;;;;;;;;;;10.44;100.00;98398.28;5001585;28;19979;-81
2023/04/18 08:55:39;;;;;;;;;;;;;;;10.45;100.00;98398.03;5012156;28;19959;-81
2023/04/18 08:58:06;;;;;;;;;;;;;;;10.48;100.00;98408.22;5018061;28;20473;-79
2023/04/18 09:00:34;;;;;;;;;;;;;;;10.41;100.00;98404.94;5015514;28;19945;-79
2023/04/18 09:03:02;;;;;;;;;;;;;;;10.46;100.00;98409.53;5006210;28;19932;-79
2023/04/18 09:05:28;;;;;;;;;;;;;;;10.44;100.00;98412.44;5018052;28;20554;-80
2023/04/18 09:07:56;;;;;;;;;;;;;;;10.50;100.00;98408.75;5016114;28;20023;-81
2023/04/18 09:10:27;;;;;;;;;;;;;;;10.59;100.00;98415.28;5017744;28;19948;-80
2023/04/18 09:12:54;;;;;;;;;;;;;;;10.72;100.00;98414.06;5021602;28;19925;-80
2023/04/18 09:15:22;;;;;;;;;;;;;;;10.70;100.00;98419.69;5020457;28;19991;-80
2023/04/18 09:17:49;;;;;;;;;;;;;;;10.76;100.00;98413.34;5019379;28;19929;-81
2023/04/18 09:20:29;;;;;;;;;;;;;;;10.65;100.00;98419.63;5005853;28;19926;-80
2023/04/18 09:22:59;;;;;;;;;;;;;;;10.68;100.00;98416.44;5013784;28;19936;-79
2023/04/18 09:25:28;;;;;;;;;;;;;;;10.75;100.00;98414.38;5007890;28;19925;-79
2023/04/18 09:27:56;;;;;;;;;;;;;;;10.85;100.00;98419.03;5024422;28;19929;-80
2023/04/18 09:30:32;;;;;;;;;;;;;;;10.97;100.00;98421.53;5010648;28;19925;-80
2023/04/18 09:33:00;;;;;;;;;;;;;;;10.94;100.00;98414.84;5025439;28;19932;-80
2023/04/18 09:35:26;;;;;;;;;;;;;;;10.87;100.00;98418.75;5010803;28;19956;-80
2023/04/18 09:37:53;;;;;;;;;;;;;;;10.97;100.00;98417.00;5009179;28;19925;-79
2023/04/18 09:40:21;;;;;;;;;;;;;;;11.03;100.00;98425.88;5003492;28;20022;-80
2023/04/18 09:42:47;;;;;;;;;;;;;;;11.09;100.00;98431.03;5020980;28;19976;-80
2023/04/18 09:45:14;;;;;;;;;;;;;;;10.99;100.00;98427.44;5019482;28;19940;-80
2023/04/18 09:47:40;;;;;;;;;;;;;;;10.93;100.00;98415.88;5012156;28;20006;-79
2023/04/18 09:50:07;;;;;;;;;;;;;;;10.97;100.00;98424.22;5017702;28;19925;-79
2023/04/18 09:52:35;;;;;;;;;;;;;;;11.01;100.00;98420.00;5018158;28;20028;-80
2023/04/18 09:55:02;;;;;;;;;;;;;;;11.02;100.00;98424.25;5011526;28;19932;-79
2023/04/18 09:57:30;;;;;;;;;;;;;;;11.00;100.00;98426.38;5017651;28;19961;-81
2023/04/18 09:59:59;;;;;;;;;;;;;;;10.97;100.00;98419.69;5004754;28;20016;-80
2023/04/18 10:02:27;;;;;;;;;;;;;;;11.03;100.00;98421.34;5022621;28;20017;-79
2023/04/18 10:04:54;;;;;;;;;;;;;;;11.09;100.00;98424.88;5024047;28;19945;-80
2023/04/18 10:07:20;;;;;;;;;;;;;;;11.15;100.00;98416.63;5006877;28;20467;-80
2023/04/18 10:09:47;;;;;;;;;;;;;;;11.29;100.00;98425.06;5006645;28;20009;-80
2023/04/18 10:12:14;;;;;;;;;;;;;;;11.26;100.00;98415.66;5004922;28;20503;-79
2023/04/18 10:14:42;;;;;;;;;;;;;;;11.34;100.00;98419.75;5000306;28;19988;-80
2023/04/18 10:17:09;;;;;;;;;;;;;;;11.34;100.00;98427.75;4990296;28;19979;-81
2023/04/18 10:19:37;;;;;;;;;;;;;;;11.46;100.00;98433.75;4990070;28;19937;-80
2023/04/18 10:22:04;;;;;;;;;;;;;;;11.43;100.00;98428.91;4991228;28;19949;-82
2023/04/18 10:24:46;;;;;;;;;;;;;;;11.34;100.00;98427.75;5001346;28;19932;-79
2023/04/18 10:27:13;;;;;;;;;;;;;;;11.26;100.00;98421.00;5006321;28;19929;-81
2023/04/18 10:29:51;;;;;;;;;;;;;;;11.34;100.00;98419.75;5000071;28;19951;-81
2023/04/18 10:32:18;;;;;;;;;;;;;;;11.40;100.00;98426.75;4992717;28;19925;-82
2023/04/18 10:34:45;;;;;;;;;;;;;;;11.31;100.00;98421.06;5008597;28;19925;-79
2023/04/18 10:37:12;;;;;;;;;;;;;;;11.25;100.00;98418.59;4997432;28;19926;-80
2023/04/18 10:39:49;;;;;;;;;;;;;;;11.38;100.00;98423.53;5009897;28;19933;-81
2023/04/18 10:42:15;;;;;;;;;;;;;;;11.33;100.00;98418.94;5004288;28;19925;-80
2023/04/18 10:44:42;;;;;;;;;;;;;;;11.53;100.00;98420.16;5020821;28;19955;-80
2023/04/18 10:47:22;;;;;;;;;;;;;;;11.52;100.00;98419.34;5017936;28;19933;-81
2023/04/18 10:49:59;;;;;;;;;;;;;;;11.58;100.00;98418.31;5022752;28;19999;-80
2023/04/18 10:52:27;;;;;;;;;;;;;;;11.49;100.00;98406.47;5006579;28;19925;-80
2023/04/18 10:54:55;;;;;;;;;;;;;;;11.42;100.00;98413.91;5018626;28;20016;-79
2023/04/18 10:57:21;;;;;;;;;;;;;;;11.46;100.00;98415.00;5018876;28;20451;-80
2023/04/18 10:59:49;;;;;;;;;;;;;;;11.35;100.00;98408.00;5026743;28;19987;-80
2023/04/18 11:02:22;;;;;;;;;;;;;;;11.46;100.00;98404.31;5026350;28;19929;-80
2023/04/18 11:04:51;;;;;;;;;;;;;;;11.58;100.00;98407.63;5018651;28;19926;-80
2023/04/18 11:07:17;;;;;;;;;;;;;;;11.65;100.00;98408.22;5020064;28;19953;-80
2023/04/18 11:09:51;;;;;;;;;;;;;;;11.46;100.00;98404.31;5007777;28;20084;-81
2023/04/18 11:12:17;;;;;;;;;;;;;;;11.39;100.00;98398.38;5017985;28;19929;-79
2023/04/18 11:14:44;;;;;;;;;;;;;;;11.20;100.00;98397.97;5017293;28;20024;-81
2023/04/18 11:17:17;;;;;;;;;;;;;;;11.52;100.00;98397.13;5020833;28;19961;-79
2023/04/18 11:19:44;;;;;;;;;;;;;;;11.44;100.00;98409.13;5004323;28;20019;-81
2023/04/18 11:22:12;;;;;;;;;;;;;;;11.57;100.00;98408.69;5000401;28;19991;-81
2023/04/18 11:24:38;;;;;;;;;;;;;;;11.50;100.00;98399.28;5014549;28;20432;-80
2023/04/18 11:27:05;;;;;;;;;;;;;;;11.62;100.00;98405.22;5007082;28;19931;-79
2023/04/18 11:29:32;;;;;;;;;;;;;;;11.63;100.00;98396.16;5009573;28;20009;-80
2023/04/18 11:31:58;;;;;;;;;;;;;;;11.65;100.00;98394.03;5016657;28;19940;-80
2023/04/18 11:34:28;;;;;;;;;;;;;;;11.64;100.00;98403.09;5014233;28;19925;-80
2023/04/18 11:36:54;;;;;;;;;;;;;;;11.49;100.00;98403.00;5000669;28;20023;-79
2023/04/18 11:39:22;;;;;;;;;;;;;;;11.58;100.00;98404.94;4991723;28;19934;-79
2023/04/18 11:41:50;;;;;;;;;;;;;;;11.73;100.00;98406.94;5008556;28;19931;-78
2023/04/18 11:44:17;;;;;;;;;;;;;;;11.73;100.00;98406.94;5015123;28;20427;-79
2023/04/18 11:46:44;;;;;;;;;;;;;;;11.73;100.00;98399.72;5007843;28;20154;-80
2023/04/18 11:49:24;;;;;;;;;;;;;;;11.80;100.00;98399.50;5007394;28;20096;-80
2023/04/18 11:51:50;;;;;;;;;;;;;;;11.86;100.00;98401.13;5008067;28;19940;-81
2023/04/18 11:54:31;;;;;;;;;;;;;;;11.94;100.00;98394.50;5007068;28;20140;-79
2023/04/18 11:56:59;;;;;;;;;;;;;;;11.98;100.00;98401.72;5012092;28;20418;-80
2023/04/18 11:59:25;;;;;;;;;;;;;;;11.99;100.00;98402.53;5016148;28;20024;-80
2023/04/18 12:01:58;;;;;;;;;;;;;;;11.68;100.00;98405.00;5017476;28;19933;-79
2023/04/18 12:04:24;;;;;;;;;;;;;;;11.91;100.00;98401.97;5023439;28;20244;-79
2023/04/18 12:06:51;;;;;;;;;;;;;;;11.83;100.00;98394.44;5014597;28;19930;-80
2023/04/18 12:09:18;;;;;;;;;;;;;;;11.95;100.00;98396.91;5018350;28;20050;-80
2023/04/18 12:11:55;;;;;;;;;;;;;;;12.02;100.00;98396.66;5004453;28;20176;-80
2023/04/18 12:14:23;;;;;;;;;;;;;;;12.15;100.00;98396.22;5002348;28;19925;-80
2023/04/18 12:16:50;;;;;;;;;;;;;;;12.13;100.00;98388.41;5009392;28;19925;-81
2023/04/18 12:19:16;;;;;;;;;;;;;;;11.98;100.00;98399.06;5022871;28;19943;-79
2023/04/18 12:21:54;;;;;;;;;;;;;;;12.03;100.00;98395.63;5007664;28;19971;-80
2023/04/18 12:24:22;;;;;;;;;;;;;;;12.25;100.00;98397.06;5009268;28;19925;-79
2023/04/18 12:26:49;;;;;;;;;;;;;;;11.91;100.00;98382.44;4999931;28;19960;-79
2023/04/18 12:29:16;;;;;;;;;;;;;;;12.41;100.00;98384.50;5009321;28;19929;-81
2023/04/18 12:31:43;;;;;;;;;;;;;;;12.16;100.00;98382.53;5006795;28;19984;-81
2023/04/18 12:34:10;;;;;;;;;;;;;;;12.16;100.00;98382.53;5018613;28;20000;-80
2023/04/18 12:36:36;;;;;;;;;;;;;;;12.20;100.00;98377.47;5013664;28;19952;-79
2023/04/18 12:39:03;;;;;;;;;;;;;;;12.43;100.00;98377.03;5007949;28;19929;-79
2023/04/18 12:41:29;;;;;;;;;;;;;;;12.61;100.00;98379.22;5005073;28;19936;-80